createdAt,value
2023-05-13T00:01:11.965Z,4.32
2023-05-13T00:03:13.545Z,4.47
2023-05-13T00:05:15.169Z,4.00
2023-05-13T00:07:16.727Z,4.93
2023-05-13T00:09:18.276Z,6.80
2023-05-13T00:11:19.769Z,6.22
2023-05-13T00:13:21.587Z,4.93
2023-05-13T00:15:23.375Z,4.60
2023-05-13T00:17:24.999Z,4.65
2023-05-13T00:19:26.563Z,4.47
2023-05-13T00:21:28.067Z,5.00
2023-05-13T00:23:29.584Z,4.80
2023-05-13T00:25:31.143Z,4.72
2023-05-13T00:27:35.351Z,5.07
2023-05-13T00:29:36.877Z,4.53
2023-05-13T00:31:38.428Z,4.05
2023-05-13T00:33:40.024Z,4.57
2023-05-13T00:35:41.813Z,4.53
2023-05-13T00:37:43.571Z,3.97
2023-05-13T00:39:45.153Z,4.22
2023-05-13T00:41:46.780Z,4.35
2023-05-13T00:43:48.361Z,4.13
2023-05-13T00:45:50.587Z,4.22
2023-05-13T00:47:52.281Z,4.30
2023-05-13T00:49:53.941Z,4.18
2023-05-13T00:51:55.451Z,4.05
2023-05-13T00:53:59.183Z,3.97
2023-05-13T00:56:00.750Z,4.75
2023-05-13T00:58:02.279Z,4.18
2023-05-13T01:00:05.924Z,4.00
2023-05-13T01:02:19.527Z,3.70
2023-05-13T01:04:33.288Z,3.90
2023-05-13T01:07:06.276Z,4.00
2023-05-13T01:09:19.144Z,3.90
2023-05-13T01:11:24.897Z,4.10
2023-05-13T01:13:33.611Z,4.03
2023-05-13T01:15:42.253Z,4.40
2023-05-13T01:17:47.199Z,4.70
2023-05-13T01:19:53.314Z,4.43
2023-05-13T01:21:55.528Z,3.90
2023-05-13T01:23:57.187Z,3.72
2023-05-13T01:25:58.772Z,3.88
2023-05-13T01:28:00.472Z,3.70
2023-05-13T01:30:02.546Z,4.25
2023-05-13T01:32:04.851Z,4.35
2023-05-13T01:34:10.511Z,4.28
2023-05-13T01:36:12.665Z,4.20
2023-05-13T01:38:15.351Z,4.93
2023-05-13T01:40:31.041Z,4.30
2023-05-13T01:42:34.981Z,5.15
2023-05-13T01:44:36.631Z,4.35
2023-05-13T01:46:44.098Z,4.35
2023-05-13T01:48:45.720Z,4.80
2023-05-13T01:50:47.463Z,5.10
2023-05-13T01:52:49.031Z,4.97
2023-05-13T01:54:50.574Z,4.75
2023-05-13T01:56:52.967Z,4.45
2023-05-13T01:58:54.478Z,4.88
2023-05-13T02:00:56.049Z,4.78
2023-05-13T02:02:58.073Z,5.65
2023-05-13T02:04:59.680Z,5.38
2023-05-13T02:07:01.182Z,5.03
2023-05-13T02:09:02.810Z,4.53
2023-05-13T02:11:04.344Z,5.68
2023-05-13T02:13:05.912Z,5.68
2023-05-13T02:15:08.043Z,5.15
2023-05-13T02:17:09.643Z,5.45
2023-05-13T02:19:11.298Z,5.90
2023-05-13T02:21:12.926Z,6.00
2023-05-13T02:23:17.806Z,6.47
2023-05-13T02:25:19.547Z,7.00
2023-05-13T02:27:21.216Z,5.38
2023-05-13T02:29:22.824Z,5.95
2023-05-13T02:31:24.423Z,5.53
2023-05-13T02:33:25.989Z,6.25
2023-05-13T02:35:30.494Z,5.60
2023-05-13T02:37:32.172Z,5.30
2023-05-13T02:39:33.743Z,6.15
2023-05-13T02:41:35.335Z,6.20
2023-05-13T02:43:36.839Z,6.78
2023-05-13T02:45:40.861Z,7.32
2023-05-13T02:47:42.721Z,7.32
2023-05-13T02:49:44.329Z,8.40
2023-05-13T02:51:46.307Z,8.02
2023-05-13T02:53:47.857Z,6.97
2023-05-13T02:55:49.417Z,7.43
2023-05-13T02:57:50.994Z,6.80
2023-05-13T02:59:52.529Z,7.38
2023-05-13T03:01:54.045Z,5.95
2023-05-13T03:03:55.624Z,6.47
2023-05-13T03:05:57.131Z,5.82
2023-05-13T03:07:58.732Z,6.82
2023-05-13T03:10:00.340Z,6.90
2023-05-13T03:12:02.033Z,6.80
2023-05-13T03:14:03.545Z,7.60
2023-05-13T03:16:05.164Z,7.13
2023-05-13T03:18:06.713Z,7.25
2023-05-13T03:20:08.813Z,6.95
2023-05-13T03:22:10.359Z,9.50
2023-05-13T03:24:11.914Z,10.65
2023-05-13T03:26:13.446Z,9.65
2023-05-13T03:28:15.023Z,8.43
2023-05-13T03:30:16.552Z,7.95
2023-05-13T03:32:18.125Z,14.82
2023-05-13T03:34:19.732Z,11.75
2023-05-13T03:36:21.236Z,12.82
2023-05-13T03:38:22.791Z,7.95
2023-05-13T03:40:24.604Z,6.68
2023-05-13T03:42:26.577Z,7.32
2023-05-13T03:44:28.100Z,6.88
2023-05-13T03:46:29.987Z,6.80
2023-05-13T03:48:31.649Z,6.22
2023-05-13T03:50:33.138Z,5.30
2023-05-13T03:52:34.702Z,5.75
2023-05-13T03:54:36.445Z,5.30
2023-05-13T03:56:37.968Z,5.28
2023-05-13T03:58:39.701Z,4.82
2023-05-13T04:00:42.346Z,4.97
2023-05-13T04:02:44.061Z,5.20
2023-05-13T04:04:45.710Z,5.38
2023-05-13T04:06:47.264Z,4.32
2023-05-13T04:08:49.998Z,4.63
2023-05-13T04:10:51.557Z,4.90
2023-05-13T04:12:53.215Z,4.95
2023-05-13T04:14:54.702Z,9.85
2023-05-13T04:16:56.283Z,5.13
2023-05-13T04:18:57.907Z,4.88
2023-05-13T04:20:59.614Z,4.88
2023-05-13T04:23:01.752Z,4.53
2023-05-13T04:25:03.442Z,4.35
2023-05-13T04:27:05.262Z,4.65
2023-05-13T04:29:06.802Z,4.72
2023-05-13T04:31:08.359Z,4.88
2023-05-13T04:33:10.090Z,4.80
2023-05-13T04:35:11.659Z,4.45
2023-05-13T04:37:13.282Z,6.97
2023-05-13T04:39:14.826Z,9.88
2023-05-13T04:41:16.495Z,15.75
2023-05-13T04:43:18.055Z,10.68
2023-05-13T04:45:19.591Z,12.30
2023-05-13T04:47:21.250Z,9.13
2023-05-13T04:49:23.026Z,6.40
2023-05-13T04:51:25.253Z,5.85
2023-05-13T04:53:27.147Z,5.05
2023-05-13T04:55:28.705Z,4.88
2023-05-13T04:57:30.466Z,4.60
2023-05-13T04:59:32.612Z,4.20
2023-05-13T05:01:34.337Z,4.40
2023-05-13T05:03:35.865Z,5.55
2023-05-13T05:05:37.764Z,4.13
2023-05-13T05:07:40.590Z,4.88
2023-05-13T05:09:42.190Z,4.82
2023-05-13T05:11:43.914Z,5.13
2023-05-13T05:13:45.650Z,4.80
2023-05-13T05:15:47.214Z,4.25
2023-05-13T05:17:48.937Z,4.47
2023-05-13T05:19:50.645Z,4.20
2023-05-13T05:21:52.512Z,4.18
2023-05-13T05:23:54.030Z,3.85
2023-05-13T05:26:04.453Z,4.03
2023-05-13T05:28:13.534Z,4.50
2023-05-13T05:30:15.123Z,4.20
2023-05-13T05:32:16.629Z,3.95
2023-05-13T05:34:18.249Z,4.35
2023-05-13T05:36:20.867Z,5.45
2023-05-13T05:38:25.237Z,3.83
2023-05-13T05:40:26.836Z,4.93
2023-05-13T05:42:28.513Z,4.80
2023-05-13T05:44:30.401Z,4.50
2023-05-13T05:46:32.154Z,4.20
2023-05-13T05:48:34.820Z,4.10
2023-05-13T05:50:36.674Z,4.00
2023-05-13T05:52:38.156Z,3.50
2023-05-13T05:54:39.695Z,4.85
2023-05-13T05:56:41.225Z,3.67
2023-05-13T05:58:42.881Z,3.60
2023-05-13T06:00:44.497Z,3.42
2023-05-13T06:02:46.522Z,3.67
2023-05-13T06:04:48.170Z,3.80
2023-05-13T06:06:49.976Z,4.00
2023-05-13T06:08:51.555Z,3.90
2023-05-13T06:10:53.065Z,4.57
2023-05-13T06:12:54.591Z,3.60
2023-05-13T06:14:56.180Z,3.50
2023-05-13T06:16:57.687Z,3.28
2023-05-13T06:18:59.295Z,3.05
2023-05-13T06:21:00.882Z,3.17
2023-05-13T06:23:02.381Z,3.75
2023-05-13T06:25:04.371Z,2.95
2023-05-13T06:27:05.956Z,2.90
2023-05-13T06:29:07.548Z,3.60
2023-05-13T06:31:09.150Z,3.40
2023-05-13T06:33:12.642Z,4.07
2023-05-13T06:35:14.563Z,3.00
2023-05-13T06:37:16.111Z,3.20
2023-05-13T06:39:17.654Z,3.58
2023-05-13T06:41:19.179Z,2.70
2023-05-13T06:43:20.713Z,3.20
2023-05-13T06:45:23.560Z,3.10
2023-05-13T06:47:25.345Z,3.20
2023-05-13T06:49:27.155Z,2.97
2023-05-13T06:51:28.810Z,2.90
2023-05-13T06:53:31.794Z,2.83
2023-05-13T06:55:35.926Z,3.30
2023-05-13T06:57:42.998Z,3.30
2023-05-13T06:59:45.325Z,3.45
2023-05-13T07:01:47.385Z,3.03
2023-05-13T07:03:49.322Z,2.72
2023-05-13T07:05:51.092Z,3.03
2023-05-13T07:07:53.736Z,3.38
2023-05-13T07:09:55.349Z,2.38
2023-05-13T07:11:56.921Z,3.22
2023-05-13T07:13:58.432Z,2.97
2023-05-13T07:16:00.021Z,2.90
2023-05-13T07:18:01.621Z,2.47
2023-05-13T07:20:03.281Z,2.92
2023-05-13T07:22:04.933Z,2.80
2023-05-13T07:24:06.506Z,2.55
2023-05-13T07:26:08.400Z,2.90
2023-05-13T07:28:09.965Z,2.60
2023-05-13T07:30:12.660Z,2.35
2023-05-13T07:32:14.213Z,2.47
2023-05-13T07:34:16.217Z,2.60
2023-05-13T07:36:17.792Z,2.75
2023-05-13T07:38:19.505Z,2.65
2023-05-13T07:40:21.583Z,2.65
2023-05-13T07:42:23.334Z,2.90
2023-05-13T07:44:24.864Z,3.17
2023-05-13T07:46:26.594Z,3.00
2023-05-13T07:48:28.317Z,2.83
2023-05-13T07:50:29.895Z,2.42
2023-05-13T07:52:32.456Z,3.20
2023-05-13T07:54:33.988Z,2.47
2023-05-13T07:56:35.917Z,2.78
2023-05-13T07:58:37.767Z,3.17
2023-05-13T08:00:39.492Z,2.38
2023-05-13T08:02:42.954Z,2.35
2023-05-13T08:04:44.556Z,2.47
2023-05-13T08:06:46.423Z,2.75
2023-05-13T08:08:48.006Z,2.40
2023-05-13T08:10:49.509Z,2.47
2023-05-13T08:12:54.315Z,2.78
2023-05-13T08:14:55.888Z,3.63
2023-05-13T08:16:57.403Z,3.65
2023-05-13T08:18:59.022Z,3.28
2023-05-13T08:21:00.852Z,5.10
2023-05-13T08:23:02.549Z,3.33
2023-05-13T08:25:04.251Z,2.85
2023-05-13T08:27:05.833Z,2.55
2023-05-13T08:29:07.675Z,2.72
2023-05-13T08:31:12.080Z,2.45
2023-05-13T08:33:13.775Z,2.22
2023-05-13T08:35:15.306Z,3.03
2023-05-13T08:37:17.162Z,2.20
2023-05-13T08:39:18.830Z,2.08
2023-05-13T08:41:21.983Z,2.35
2023-05-13T08:43:24.518Z,2.22
2023-05-13T08:45:28.784Z,2.10
2023-05-13T08:47:30.322Z,2.40
2023-05-13T08:49:33.080Z,2.55
2023-05-13T08:51:34.623Z,2.40
2023-05-13T08:53:39.863Z,2.03
2023-05-13T08:55:41.478Z,2.80
2023-05-13T08:57:42.996Z,1.85
2023-05-13T08:59:44.623Z,2.33
2023-05-13T09:01:46.574Z,2.03
2023-05-13T09:03:57.859Z,1.80
2023-05-13T09:06:03.217Z,2.00
2023-05-13T09:08:11.097Z,2.33
2023-05-13T09:10:12.694Z,2.00
2023-05-13T09:12:44.492Z,1.92
2023-05-13T09:14:46.009Z,2.53
2023-05-13T09:16:48.327Z,2.75
2023-05-13T09:18:49.974Z,2.40
2023-05-13T09:20:51.826Z,2.42
2023-05-13T09:22:58.873Z,1.88
2023-05-13T09:25:00.474Z,1.88
2023-05-13T09:27:01.977Z,2.15
2023-05-13T09:29:18.425Z,2.10
2023-05-13T09:31:33.057Z,1.83
2023-05-13T09:33:34.597Z,1.92
2023-05-13T09:35:38.155Z,1.95
2023-05-13T09:37:39.801Z,4.43
2023-05-13T09:39:42.081Z,5.35
2023-05-13T09:41:43.892Z,2.15
2023-05-13T09:43:45.429Z,4.63
2023-05-13T09:45:47.154Z,3.10
2023-05-13T09:47:52.484Z,2.05
2023-05-13T09:49:57.947Z,1.98
2023-05-13T09:51:59.485Z,2.67
2023-05-13T09:54:06.426Z,2.00
2023-05-13T09:56:10.087Z,2.78
2023-05-13T09:58:12.696Z,1.95
2023-05-13T10:00:24.810Z,1.67
2023-05-13T10:02:34.944Z,2.00
2023-05-13T10:04:36.846Z,1.92
2023-05-13T10:06:39.046Z,2.17
2023-05-13T10:08:40.749Z,2.20
2023-05-13T10:10:45.928Z,2.65
2023-05-13T10:12:48.981Z,2.85
2023-05-13T10:14:52.977Z,2.15
2023-05-13T10:16:54.627Z,2.22
2023-05-13T10:18:59.508Z,2.60
2023-05-13T10:21:02.154Z,2.28
2023-05-13T10:23:04.255Z,2.53
2023-05-13T10:25:07.432Z,2.10
2023-05-13T10:27:11.762Z,2.38
2023-05-13T10:29:14.024Z,2.70
2023-05-13T10:31:17.446Z,2.72
2023-05-13T10:33:20.227Z,2.40
2023-05-13T10:35:26.204Z,1.98
2023-05-13T10:37:56.560Z,2.25
2023-05-13T10:40:17.016Z,2.50
2023-05-13T10:42:39.520Z,2.35
2023-05-13T10:44:41.125Z,2.22
2023-05-13T10:46:43.416Z,1.98
2023-05-13T10:48:50.953Z,2.38
2023-05-13T10:50:55.404Z,2.20
2023-05-13T10:53:00.036Z,2.20
2023-05-13T10:55:02.813Z,2.80
2023-05-13T10:57:04.914Z,2.40
2023-05-13T10:59:06.626Z,2.60
2023-05-13T11:01:30.753Z,2.70
2023-05-13T11:03:32.526Z,2.17
2023-05-13T11:05:34.766Z,2.60
2023-05-13T11:07:39.631Z,2.22
2023-05-13T11:09:41.627Z,2.00
2023-05-13T11:11:47.811Z,2.28
2023-05-13T11:13:53.360Z,2.53
2023-05-13T11:15:55.648Z,2.50
2023-05-13T11:17:57.373Z,2.40
2023-05-13T11:19:59.467Z,2.10
2023-05-13T11:22:11.240Z,2.25
2023-05-13T11:24:18.024Z,2.00
2023-05-13T11:26:21.350Z,2.25
2023-05-13T11:28:53.906Z,2.40
2023-05-13T11:30:56.094Z,2.78
2023-05-13T11:32:58.976Z,2.83
2023-05-13T11:35:00.705Z,2.65
2023-05-13T11:37:05.153Z,3.42
2023-05-13T11:39:08.995Z,3.00
2023-05-13T11:41:11.648Z,2.13
2023-05-13T11:43:19.719Z,2.95
2023-05-13T11:45:24.339Z,2.92
2023-05-13T11:47:27.941Z,3.10
2023-05-13T11:49:50.442Z,2.58
2023-05-13T11:51:52.067Z,2.08
2023-05-13T11:54:00.987Z,2.85
2023-05-13T11:56:10.843Z,2.60
2023-05-13T12:00:15.444Z,3.58
2023-05-13T12:02:20.886Z,3.08
2023-05-13T12:04:28.389Z,3.03
2023-05-13T12:06:30.485Z,2.60
2023-05-13T12:08:32.348Z,3.22
2023-05-13T12:10:34.005Z,2.38
2023-05-13T12:12:38.841Z,2.45
2023-05-13T12:14:40.555Z,2.90
2023-05-13T12:16:42.202Z,2.50
2023-05-13T12:18:56.715Z,2.60
2023-05-13T12:20:58.379Z,2.83
2023-05-13T12:23:01.138Z,4.30
2023-05-13T12:25:41.757Z,3.40
2023-05-13T12:27:43.316Z,3.28
2023-05-13T12:29:44.889Z,2.83
2023-05-13T12:32:04.128Z,3.13
2023-05-13T12:34:06.860Z,3.72
2023-05-13T12:36:27.960Z,2.65
2023-05-13T12:38:29.625Z,2.25
2023-05-13T12:40:32.324Z,2.65
2023-05-13T12:42:34.843Z,2.67
2023-05-13T12:44:36.650Z,2.65
2023-05-13T12:46:38.329Z,2.10
2023-05-13T12:48:39.847Z,2.22
2023-05-13T12:50:41.505Z,2.25
2023-05-13T12:52:43.008Z,2.22
2023-05-13T12:54:44.506Z,2.30
2023-05-13T12:56:46.244Z,2.38
2023-05-13T12:58:48.632Z,2.55
2023-05-13T13:00:50.292Z,3.05
2023-05-13T13:02:53.721Z,3.10
2023-05-13T13:04:55.390Z,2.60
2023-05-13T13:06:56.925Z,9.45
2023-05-13T13:08:58.443Z,3.28
2023-05-13T13:11:00.734Z,2.38
2023-05-13T13:13:02.309Z,2.17
2023-05-13T13:15:05.208Z,2.35
2023-05-13T13:17:07.174Z,2.53
2023-05-13T13:19:09.687Z,2.22
2023-05-13T13:21:11.309Z,2.00
2023-05-13T13:23:12.891Z,2.55
2023-05-13T13:25:14.389Z,2.60
2023-05-13T13:27:15.909Z,2.25
2023-05-13T13:29:17.457Z,3.67
2023-05-13T13:31:19.395Z,2.47
2023-05-13T13:35:23.008Z,2.67
2023-05-13T13:37:24.770Z,23.30
2023-05-13T13:39:26.656Z,3.42
2023-05-13T13:41:28.179Z,34.78
2023-05-13T13:43:29.776Z,48.97
2023-05-13T13:45:31.359Z,19.63
2023-05-13T13:47:33.458Z,81.55
2023-05-13T13:49:35.016Z,36.78
2023-05-13T13:51:36.600Z,11.80
2023-05-13T13:53:38.075Z,3.40
2023-05-13T13:55:39.625Z,3.03
2023-05-13T13:57:41.233Z,2.67
2023-05-13T13:59:42.767Z,3.17
2023-05-13T14:01:44.927Z,2.53
2023-05-13T14:03:50.355Z,4.00
2023-05-13T14:05:52.047Z,2.63
2023-05-13T14:07:54.206Z,2.30
2023-05-13T14:09:55.820Z,2.60
2023-05-13T14:11:57.787Z,2.10
2023-05-13T14:13:59.380Z,2.35
2023-05-13T14:16:01.150Z,2.60
2023-05-13T14:18:02.800Z,2.20
2023-05-13T14:20:05.645Z,2.20
2023-05-13T14:22:07.234Z,2.33
2023-05-13T14:24:08.840Z,2.60
2023-05-13T14:26:15.417Z,2.20
2023-05-13T14:28:17.694Z,2.47
2023-05-13T14:30:19.824Z,3.03
2023-05-13T14:32:21.612Z,3.97
2023-05-13T14:34:23.705Z,138.40
2023-05-13T14:36:26.794Z,25.70
2023-05-13T14:38:28.473Z,40.50
2023-05-13T14:40:30.705Z,8.38
2023-05-13T14:42:32.379Z,3.60
2023-05-13T14:44:33.933Z,2.55
2023-05-13T14:46:37.290Z,2.92
2023-05-13T14:48:39.144Z,4.07
2023-05-13T14:50:41.935Z,2.97
2023-05-13T14:52:43.667Z,2.65
2023-05-13T14:54:45.195Z,3.92
2023-05-13T14:56:46.830Z,8.10
2023-05-13T14:58:48.916Z,6.28
2023-05-13T15:00:50.608Z,10.43
2023-05-13T15:02:52.526Z,7.28
2023-05-13T15:04:54.075Z,10.65
2023-05-13T15:06:56.223Z,9.13
2023-05-13T15:08:57.818Z,13.10
2023-05-13T15:10:59.481Z,2.42
2023-05-13T15:13:01.092Z,17.52
2023-05-13T15:15:03.322Z,3.20
2023-05-13T15:17:06.043Z,18.85
2023-05-13T15:19:07.838Z,13.50
2023-05-13T15:21:09.453Z,17.95
2023-05-13T15:23:11.163Z,19.63
2023-05-13T15:25:12.749Z,7.10
2023-05-13T15:27:14.390Z,15.15
2023-05-13T15:29:16.785Z,16.50
2023-05-13T15:31:18.380Z,13.25
2023-05-13T15:33:19.966Z,11.35
2023-05-13T15:35:21.643Z,2.70
2023-05-13T15:37:23.273Z,24.33
2023-05-13T15:39:24.801Z,30.17
2023-05-13T15:41:26.440Z,23.60
2023-05-13T15:43:27.926Z,29.52
2023-05-13T15:45:29.583Z,22.38
2023-05-13T15:47:31.268Z,20.67
2023-05-13T15:49:35.899Z,37.08
2023-05-13T15:51:37.694Z,12.70
2023-05-13T15:53:39.372Z,7.10
2023-05-13T15:55:40.971Z,10.55
2023-05-13T15:57:42.476Z,32.88
2023-05-13T15:59:44.002Z,39.25
2023-05-13T16:01:46.772Z,19.23
2023-05-13T16:03:48.885Z,21.13
2023-05-13T16:05:51.396Z,11.93
2023-05-13T16:07:53.138Z,20.05
2023-05-13T16:09:54.958Z,10.63
2023-05-13T16:11:56.903Z,18.83
2023-05-13T16:13:58.581Z,15.38
2023-05-13T16:16:00.214Z,16.80
2023-05-13T16:18:01.964Z,9.23
2023-05-13T16:20:04.211Z,16.42
2023-05-13T16:22:30.288Z,27.38
2023-05-13T16:24:31.794Z,19.27
2023-05-13T16:26:33.473Z,4.63
2023-05-13T16:28:35.085Z,18.30
2023-05-13T16:30:37.670Z,7.88
2023-05-13T16:32:39.445Z,7.90
2023-05-13T16:34:40.994Z,10.23
2023-05-13T16:36:42.536Z,5.00
2023-05-13T16:38:44.099Z,4.57
2023-05-13T16:40:45.665Z,3.65
2023-05-13T16:42:47.348Z,2.78
2023-05-13T16:44:49.134Z,5.30
2023-05-13T16:46:50.664Z,5.10
2023-05-13T16:48:52.300Z,9.93
2023-05-13T16:50:53.940Z,4.82
2023-05-13T16:52:55.575Z,3.47
2023-05-13T16:54:59.010Z,7.25
2023-05-13T16:57:00.829Z,3.90
2023-05-13T16:59:02.394Z,4.22
2023-05-13T17:01:04.108Z,3.00
2023-05-13T17:03:05.743Z,3.30
2023-05-13T17:05:07.559Z,4.55
2023-05-13T17:07:09.592Z,3.45
2023-05-13T17:09:11.517Z,3.72
2023-05-13T17:11:16.722Z,4.35
2023-05-13T17:13:19.754Z,3.50
2023-05-13T17:15:21.433Z,3.20
2023-05-13T17:17:23.031Z,3.30
2023-05-13T17:19:24.588Z,5.28
2023-05-13T17:21:26.150Z,4.38
2023-05-13T17:23:27.672Z,7.40
2023-05-13T17:25:29.187Z,3.20
2023-05-13T17:27:30.702Z,3.90
2023-05-13T17:29:32.236Z,7.45
2023-05-13T17:31:34.064Z,4.20
2023-05-13T17:33:35.679Z,4.00
2023-05-13T17:35:37.188Z,7.60
2023-05-13T17:37:38.803Z,4.60
2023-05-13T17:39:40.296Z,5.57
2023-05-13T17:41:41.809Z,5.18
2023-05-13T17:43:43.411Z,4.97
2023-05-13T17:45:45.249Z,6.93
2023-05-13T17:47:46.885Z,8.65
2023-05-13T17:49:48.452Z,7.18
2023-05-13T17:51:49.995Z,5.95
2023-05-13T17:53:51.546Z,4.28
2023-05-13T17:55:53.937Z,4.05
2023-05-13T17:57:55.773Z,4.28
2023-05-13T17:59:58.318Z,7.50
2023-05-13T18:01:59.995Z,4.80
2023-05-13T18:04:01.519Z,4.15
2023-05-13T18:06:03.188Z,4.35
2023-05-13T18:08:05.206Z,3.60
2023-05-13T18:10:07.611Z,4.68
2023-05-13T18:12:09.245Z,4.72
2023-05-13T18:14:10.811Z,8.00
2023-05-13T18:16:13.489Z,28.63
2023-05-13T18:18:16.264Z,10.32
2023-05-13T18:20:18.630Z,14.18
2023-05-13T18:22:20.354Z,17.67
2023-05-13T18:24:22.213Z,36.10
2023-05-13T18:26:23.894Z,206.68
2023-05-13T18:28:25.794Z,74.75
2023-05-13T18:30:27.884Z,39.88
2023-05-13T18:32:30.530Z,27.67
2023-05-13T18:34:33.259Z,111.72
2023-05-13T18:36:34.832Z,35.90
2023-05-13T18:38:36.434Z,32.80
2023-05-13T18:40:37.986Z,19.75
2023-05-13T18:42:39.602Z,22.77
2023-05-13T18:44:41.224Z,47.10
2023-05-13T18:46:44.479Z,76.32
2023-05-13T18:48:46.443Z,157.23
2023-05-13T18:50:47.994Z,151.98
2023-05-13T18:52:49.510Z,147.75
2023-05-13T18:54:51.175Z,105.32
2023-05-13T18:56:52.916Z,148.98
2023-05-13T18:58:54.825Z,132.95
2023-05-13T19:00:56.421Z,87.97
2023-05-13T19:02:58.076Z,126.88
2023-05-13T19:05:00.148Z,144.82
2023-05-13T19:07:01.730Z,66.05
2023-05-13T19:09:03.961Z,38.10
2023-05-13T19:11:05.616Z,38.88
2023-05-13T19:13:07.533Z,28.08
2023-05-13T19:15:09.350Z,32.45
2023-05-13T19:17:11.084Z,36.38
2023-05-13T19:19:12.845Z,34.92
2023-05-13T19:21:14.415Z,28.17
2023-05-13T19:23:16.153Z,33.63
2023-05-13T19:25:17.928Z,30.92
2023-05-13T19:27:19.546Z,24.52
2023-05-13T19:29:21.103Z,25.35
2023-05-13T19:31:22.671Z,25.08
2023-05-13T19:33:24.215Z,25.25
2023-05-13T19:35:25.923Z,32.67
2023-05-13T19:37:27.572Z,27.52
2023-05-13T19:39:29.174Z,25.73
2023-05-13T19:41:30.808Z,24.45
2023-05-13T19:43:32.344Z,22.52
2023-05-13T19:45:34.408Z,21.27
2023-05-13T19:47:36.235Z,20.48
2023-05-13T19:49:37.843Z,24.05
2023-05-13T19:51:39.372Z,23.88
2023-05-13T19:53:41.222Z,23.55
2023-05-13T19:55:42.787Z,24.35
2023-05-13T19:57:44.317Z,25.55
2023-05-13T19:59:46.765Z,29.67
2023-05-13T20:01:48.321Z,27.00
2023-05-13T20:03:49.914Z,24.92
2023-05-13T20:05:53.113Z,26.02
2023-05-13T20:07:54.662Z,27.70
2023-05-13T20:09:56.620Z,40.25
2023-05-13T20:11:58.179Z,48.78
2023-05-13T20:13:59.703Z,54.30
2023-05-13T20:16:01.386Z,58.60
2023-05-13T20:18:02.902Z,57.35
2023-05-13T20:20:05.172Z,52.97
2023-05-13T20:22:06.710Z,47.35
2023-05-13T20:24:08.387Z,47.40
2023-05-13T20:26:09.962Z,40.90
2023-05-13T20:28:11.613Z,37.35
2023-05-13T20:30:13.700Z,35.67
2023-05-13T20:32:24.578Z,42.85
2023-05-13T20:34:26.439Z,94.20
2023-05-13T20:36:28.080Z,55.70
2023-05-13T20:38:29.632Z,35.55
2023-05-13T20:40:31.318Z,26.42
2023-05-13T20:42:33.596Z,21.75
2023-05-13T20:44:35.234Z,25.92
2023-05-13T20:46:36.830Z,27.05
2023-05-13T20:48:38.432Z,29.15
2023-05-13T20:50:39.951Z,44.05
2023-05-13T20:52:41.540Z,28.80
2023-05-13T20:54:43.060Z,21.35
2023-05-13T20:56:44.599Z,21.02
2023-05-13T20:58:46.313Z,21.40
2023-05-13T21:00:47.984Z,21.63
2023-05-13T21:02:50.496Z,18.65
2023-05-13T21:04:52.047Z,19.35
2023-05-13T21:06:53.685Z,17.13
2023-05-13T21:08:55.656Z,13.07
2023-05-13T21:10:57.512Z,10.65
2023-05-13T21:13:00.184Z,8.85
2023-05-13T21:15:01.719Z,19.77
2023-05-13T21:17:03.951Z,11.32
2023-05-13T21:19:05.655Z,14.98
2023-05-13T21:21:12.479Z,13.27
2023-05-13T21:23:14.036Z,14.23
2023-05-13T21:25:15.758Z,13.27
2023-05-13T21:27:17.306Z,13.98
2023-05-13T21:29:19.104Z,12.38
2023-05-13T21:31:20.929Z,12.30
2023-05-13T21:33:22.453Z,14.68
2023-05-13T21:35:24.167Z,12.85
2023-05-13T21:37:26.409Z,10.93
2023-05-13T21:39:27.912Z,12.40
2023-05-13T21:41:29.490Z,10.23
2023-05-13T21:43:31.079Z,8.52
2023-05-13T21:45:32.595Z,9.57
2023-05-13T21:47:34.291Z,9.65
2023-05-13T21:49:35.851Z,12.55
2023-05-13T21:51:37.419Z,11.43
2023-05-13T21:53:38.983Z,18.15
2023-05-13T21:55:40.686Z,20.95
2023-05-13T21:57:42.694Z,13.93
2023-05-13T21:59:44.453Z,19.92
2023-05-13T22:01:46.136Z,19.70
2023-05-13T22:03:47.690Z,29.27
2023-05-13T22:05:49.234Z,30.65
2023-05-13T22:07:51.172Z,26.52
2023-05-13T22:09:52.737Z,27.95
2023-05-13T22:11:54.269Z,28.73
2023-05-13T22:13:55.937Z,23.88
2023-05-13T22:15:57.530Z,36.63
2023-05-13T22:17:59.344Z,33.20
2023-05-13T22:20:01.046Z,36.40
2023-05-13T22:22:02.591Z,34.03
2023-05-13T22:24:06.744Z,31.92
2023-05-13T22:26:08.270Z,31.13
2023-05-13T22:28:09.853Z,29.88
2023-05-13T22:30:11.630Z,31.85
2023-05-13T22:32:13.556Z,28.73
2023-05-13T22:34:15.193Z,25.27
2023-05-13T22:36:16.816Z,24.73
2023-05-13T22:38:18.340Z,24.75
2023-05-13T22:40:19.874Z,25.23
2023-05-13T22:42:21.493Z,24.00
2023-05-13T22:44:23.273Z,22.45
2023-05-13T22:46:24.980Z,21.40
2023-05-13T22:48:26.872Z,30.25
2023-05-13T22:50:28.402Z,33.83
2023-05-13T22:52:30.236Z,35.75
2023-05-13T22:54:31.949Z,31.08
2023-05-13T22:56:33.581Z,30.02
2023-05-13T22:58:35.044Z,30.40
2023-05-13T23:00:36.562Z,30.15
2023-05-13T23:02:38.056Z,28.27
2023-05-13T23:04:39.710Z,26.73
2023-05-13T23:06:41.429Z,27.63
2023-05-13T23:08:42.957Z,28.60
2023-05-13T23:10:44.596Z,28.33
2023-05-13T23:12:46.173Z,28.90
2023-05-13T23:14:47.697Z,30.02
2023-05-13T23:16:49.281Z,29.90
2023-05-13T23:18:50.887Z,30.92
2023-05-13T23:20:53.256Z,30.48
2023-05-13T23:22:55.451Z,31.92
2023-05-13T23:24:56.931Z,31.90
2023-05-13T23:26:58.619Z,28.52
2023-05-13T23:29:00.201Z,28.52
2023-05-13T23:31:01.763Z,28.45
2023-05-13T23:33:03.469Z,28.70
2023-05-13T23:35:05.602Z,27.25
2023-05-13T23:37:07.107Z,24.40
2023-05-13T23:39:09.615Z,33.25
2023-05-13T23:41:11.217Z,35.92
2023-05-13T23:43:12.885Z,34.22
2023-05-13T23:45:14.590Z,29.77
2023-05-13T23:47:16.700Z,31.13
2023-05-13T23:49:18.205Z,29.90
2023-05-13T23:51:19.778Z,34.83
2023-05-13T23:53:21.317Z,38.83
2023-05-13T23:55:22.814Z,22.45
2023-05-13T23:57:24.369Z,44.38
2023-05-13T23:59:25.923Z,27.42
